Mozart, Arkansas
Current Conditions -  °F | °C
As of 9:15 AM on Friday 19 Dec 2014 (Local Time) from KCCA Reporting Station
Haze Haze  
Wind Chill: 39°   Ceiling: 800
Heat Index: 39°   Visibility: 4mi
Dew Point: 37°   Wind: 0mph
Humidity: 93%   Direction: NA
Pressure: 30.3"   Gusts: NA
Location:  35.7627°N, 92.308°W
Report Text: KCCA 191515Z AUTO 00000KT 4SM BR OVC008 04/03 A3030 RMK AO2
Loading
Personal Weather Stations






























Interactive Weather Map New forecast layout! Learn more

10-Day Weather Forecast

Advertisements
Track Severe Weather on mobile